Create Custom Reports and Graphics: Custom Report

Stanford Met Tower

Current Conditions

2/21/24 10:00 AM (-08:00)
Updated Every 15 Minutes
Precip 24Hr 0.19 In
Storm Total 1.59 In
Temp 57.1 °F   0.7
RH 75 %   8
Dew Pt 49.2 °F   3.6
Wind Dir ENE | 75 °
Wind Spd 3.4 mph   0.9
Wind Gust 6.0 mph   1.8
NowCast AQI Value 12 AQI   31
NowCast AQI Status Good
Daily Min Temp 41.2 °F   9.0
Daily Max Temp 57.6 °F   0.8
Daily Max Wind 8.1 mph   5.3
Yest MinT 48.4 °F
Yest MaxT 63.1 °F
Yest MaxGst 20.8 mph
Season Precip 13.46 In

Last 48 Hours

Stanford Met Tower

Hourly Data | America/Los_Angeles
as of 2/21/24 10:26 AM PST
Date & Time Temp (°F) RH (%) Dew Pt (°F) Wind Dir (°) Wind Spd (mph) Wind Gust (mph) Solar Rad (W/m2) Pressure (mb) NowCast AQI Value (AQI) NowCast AQI Status Latest Rain (In) Daily Rain (In) Daily Min Temp (°F) Daily Max Temp (°F)
2/21/24 - 1000 54.7 89 51.2 E | 93 3.2 7.2 426 1,025.7 12 Good 0.00 0.00 41.2 57.6
2/21/24 - 0900 48.9 98 48.4 SSW | 204 1.6 4.7 262 1,025.1 12 Good 0.00 0.00 41.2 51.8
2/21/24 - 0800 44.3 98 43.7 SW | 215 4.2 7.8 33 1,024.5 9 Good 0.00 0.00 41.2 48.9
2/21/24 - 0700 42.0 98 41.5 SSW | 212 4.1 6.6 2 1,024.1 7 Good 0.00 0.00 41.2 48.9
2/21/24 - 0600 42.3 98 41.8 SSW | 207 3.0 7.6 0 1,023.8 8 Good 0.00 0.00 41.6 48.9
2/21/24 - 0500 43.7 98 43.2 SSW | 197 4.1 5.7 0 1,023.5 9 Good 0.00 0.00 43.1 48.9
2/21/24 - 0400 44.2 98 43.7 SSW | 212 3.1 6.9 0 1,023.3 11 Good 0.00 0.00 43.3 48.9
2/21/24 - 0300 45.1 98 44.6 WSW | 240 3.0 6.2 0 1,023.0 15 Good 0.00 0.00 44.3 48.9
2/21/24 - 0200 46.6 98 46.1 WSW | 256 2.6 8.1 0 1,022.7 22 Good 0.00 0.00 45.5 48.9
2/21/24 - 0100 48.1 98 47.6 SSW | 210 3.9 7.1 0 1,022.4 27 Good 0.00 0.00 47.0 48.9
2/21/24 - 0000 49.1 98 48.6 SW | 217 2.7 6.7 0 1,022.3 33 Good 0.00 0.20 48.4 63.1
2/20/24 - 2300 50.0 98 49.5 SW | 223 2.7 6.3 0 1,022.3 32 Good 0.00 0.20 49.5 63.1
2/20/24 - 2200 50.3 98 49.8 W | 270 1.3 3.5 0 1,022.2 24 Good 0.00 0.20 49.7 63.1
2/20/24 - 2100 51.7 97 51.0 W | 271 0.9 3.0 0 1,021.7 18 Good 0.00 0.20 50.2 63.1
2/20/24 - 2000 53.0 97 52.2 NNW | 332 1.4 5.7 0 1,021.2 14 Good 0.00 0.20 50.2 63.1
2/20/24 - 1900 52.6 96 51.6 S | 181 1.5 4.4 0 1,020.8 10 Good 0.00 0.20 50.2 63.1
2/20/24 - 1800 53.0 93 51.1 SSE | 164 2.0 4.1 16 1,020.4 10 Good 0.00 0.20 50.2 63.1
2/20/24 - 1700 54.4 90 51.5 E | 97 5.0 11.7 92 1,020.6 10 Good 0.00 0.20 50.2 63.1
2/20/24 - 1600 55.1 88 51.7 SSW | 196 5.9 16.2 190 1,020.6 10 Good 0.00 0.20 50.2 63.1
2/20/24 - 1500 52.5 94 50.7 SW | 235 2.7 10.9 66 1,021.1 17 Good 0.09 0.20 50.2 63.1
2/20/24 - 1400 56.4 82 50.8 SW | 230 7.5 20.8 26 1,020.8 28 Good 0.10 0.11 50.2 63.1
2/20/24 - 1300 61.3 65 49.6 S | 169 3.6 9.1 90 1,020.4 30 Good 0.00 0.01 50.2 63.1
2/20/24 - 1200 62.3 65 50.5 SSE | 149 5.1 13.4 260 1,020.9 35 Good 0.00 0.01 50.2 63.1
2/20/24 - 1100 59.7 78 52.7 SE | 126 4.2 9.1 276 1,021.4 43 Good 0.00 0.01 50.2 61.7
2/20/24 - 1000 55.5 91 52.9 ESE | 105 3.9 8.0 205 1,022.0 43 Good 0.00 0.01 50.2 58.4
2/20/24 - 0900 52.3 97 51.4 SE | 125 2.1 6.2 78 1,022.1 39 Good 0.00 0.01 50.2 58.1
2/20/24 - 0800 50.8 96 49.8 SE | 131 2.7 7.4 44 1,021.4 39 Good 0.00 0.01 50.2 58.1
2/20/24 - 0700 51.8 95 50.5 SE | 125 3.8 7.5 2 1,020.9 40 Good 0.00 0.01 51.1 58.1
2/20/24 - 0600 53.1 94 51.3 ESE | 111 1.7 5.6 1 1,020.6 41 Good 0.00 0.01 52.4 58.1
2/20/24 - 0500 54.6 91 52.0 SE | 142 2.8 8.1 1 1,020.1 44 Good 0.00 0.01 53.9 58.1
2/20/24 - 0400 55.7 86 51.8 SE | 134 4.2 7.9 0 1,019.8 44 Good 0.01 0.01 55.0 58.1
2/20/24 - 0300 56.9 81 51.2 SE | 142 5.7 10.0 0 1,019.8 46 Good 0.00 0.00 56.4 58.1
2/20/24 - 0200 57.0 82 51.5 SE | 138 6.5 13.4 0 1,019.9 51 Moderate 0.00 0.00 56.5 58.1
2/20/24 - 0100 57.0 83 51.8 SE | 131 5.9 13.4 0 1,019.8 51 Moderate 0.00 0.00 56.5 58.0
2/20/24 - 0000 56.7 84 51.8 SE | 129 6.0 14.4 0 1,019.7 53 Moderate 0.00 0.79 54.1 63.4
2/19/24 - 2300 55.6 89 52.5 ESE | 118 6.0 12.2 0 1,019.4 55 Moderate 0.00 0.79 54.1 63.4
2/19/24 - 2200 54.9 93 52.9 ESE | 119 5.5 10.9 0 1,019.1 56 Moderate 0.00 0.79 54.1 63.4
2/19/24 - 2100 55.9 91 53.3 SE | 134 5.1 14.0 1 1,018.5 58 Moderate 0.01 0.79 54.1 63.4
2/19/24 - 2000 56.3 89 53.1 SSE | 159 5.4 17.9 0 1,017.8 59 Moderate 0.01 0.78 54.1 63.4
2/19/24 - 1900 56.8 88 53.2 S | 182 6.6 21.9 0 1,017.0 57 Moderate 0.02 0.77 54.1 63.4
2/19/24 - 1800 56.1 93 54.1 S | 182 7.9 20.5 13 1,016.5 51 Moderate 0.28 0.75 54.1 63.4
2/19/24 - 1700 57.6 89 54.4 SSW | 209 9.0 24.7 91 1,015.9 51 Moderate 0.20 0.47 54.1 63.4
2/19/24 - 1600 58.1 88 54.5 SSW | 211 11.1 29.7 116 1,014.9 51 Moderate 0.09 0.27 54.1 63.4
2/19/24 - 1500 58.5 86 54.4 SSW | 208 11.5 29.2 143 1,014.3 44 Good 0.07 0.18 54.1 63.4
2/19/24 - 1400 59.9 83 54.8 SSW | 205 13.3 28.8 345 1,013.8 37 Good 0.03 0.11 54.1 63.4
2/19/24 - 1300 60.9 80 54.8 SSW | 208 14.2 34.9 487 1,013.5 33 Good 0.03 0.08 54.1 63.4
2/19/24 - 1200 61.8 75 53.9 SSW | 204 16.3 36.0 633 1,013.4 27 Good 0.01 0.05 54.1 63.4
2/19/24 - 1100 62.1 73 53.4 SSW | 199 15.5 36.3 567 1,013.0 26 Good 0.00 0.04 54.1 63.4
2/19/24 - 1000 61.8 71 52.3 S | 190 13.6 31.9 466 1,012.8 26 Good 0.00 0.04 54.1 62.8
Max 62.3 98 54.8 - 16.3 36.3 633 1,025.7 59 - 0.28 0.79 56.5 63.4
Avg 53.9 89 50.6 - 5.4 13.1 101 1,020.0 32 - 0.02 - - -
Min 42.0 65 41.5 - 0.9 3.0 0 1,012.8 7 - 0.00 0.00 41.2 48.9
Total - - - - - - - - - - 0.95 - - -

Last 365 Observations

Stanford Met Tower

Daily Data | America/Los_Angeles
as of 2/21/24 10:26 AM PST
Date Daily Max Temp (°F) Time of Max Temp Daily Min Temp (°F) Time of Min Temp Daily Rain (In) Month Precip (In) Season Precip (In) Daily ETo (in) 7 Day ETo (in) Daily Solar Rad (Cal/cm2) Daily Max Wind (mph) Time of Max Wind Max Wind Dir (°) Dew Pt (°F) Max RH (%) Min RH (%) PM2.5 Daily Max (ug/m3) Time of Max PM2.5 Max Pressure (mb) (mb) Time of Max Press Min pressure (mb) (mb) Time of Min Press Max Temp2 (°F) Temp 2m (°F) Max Temp 10m (°F) Min Temp 10m (°F) Max Temp Inversion (°F) Time of Max Temp Inversion Min Temp Inversion (°F) Time of Min Temp Inversion GDDs (DL) Seas GDDs (DL) Chilling <=45F (hrs) Chilling <=45F Seas (hrs) HDDs (°F) CDDs (°F) Storm Total (In) Daily Max Rain Intensity (In/Hr) Time of Max Rain Intensity Max 1 Min Rain (In) Max 1 Min Rain Time Max 15 Min Rain (In) Max 15 Min Precip Time Max 60 Min Rain (In) Max 60 Min Rain Time MinBV Day (V)
2/20/24 63.1 1122 48.4 2330 0.20 4.64 13.46 0.034 0.37 116 20.8 1339 WSW | 237 51.0 98 62 14.8 - 1,022.5 2246 - 0003 - - 60.8 47.3 2.9 2153 - 0622 4.5 - 0.0 511 10.6 0.0 1.59 0.31 1407 0.01 1439 0.06 1417 0.16 1433 12.5
2/19/24 63.4 1027 54.1 0244 0.79 4.44 13.26 0.073 0.40 271 36.3 1042 S | 179 52.7 95 68 19.3 - 1,019.9 2323 - 0329 - - 61.4 52.0 3.0 0238 - 1014 7.8 - 0.0 511 7.2 0.0 1.39 1.56 1707 0.02 1731 0.19 1709 0.42 1739 12.4
2/18/24 70.5 1331 45.0 0520 0.27 3.65 12.47 0.090 0.39 307 35.2 1523 S | 189 52.8 98 49 5.3 - 1,018.9 0254 - 1805 - - 67.7 44.8 6.2 0554 - 2226 8.4 - 0.0 511 7.7 0.5 0.60 0.74 1835 0.01 2357 0.09 1838 0.15 1851 12.4
2/17/24 59.7 1420 50.6 0230 0.33 3.38 12.20 0.022 0.38 62 22.8 1608 S | 170 51.8 98 74 6.3 - 1,021.7 0116 - 1655 - 52.5 58.1 49.5 5.8 0432 -0.1 1534 5.0 - 0.0 511 10.0 0.0 0.33 0.88 1930 0.02 1928 0.04 1942 0.13 2003 12.5
2/16/24 62.1 1606 45.2 0430 0.00 3.05 11.87 0.039 0.44 146 7.9 0031 SSW | 201 48.7 98 62 10.5 - 1,025.9 0855 - 2349 - - 59.9 44.5 4.5 2219 - 1825 4.3 - 0.0 511 11.9 0.0 - - - - - - - - - 12.4
2/15/24 65.2 1259 46.0 0511 0.01 3.05 11.87 0.070 0.48 266 10.5 1417 N | 6 48.5 98 52 10.0 - 1,027.9 0913 - 0001 - - 62.2 46.2 4.7 0159 - 1509 4.6 - 0.0 511 11.1 0.0 0.18 0.01 0812 0.01 0713 0.01 0727 0.01 0812 12.4
2/14/24 60.8 1202 44.8 0003 0.17 3.04 11.86 0.040 0.47 134 23.4 1408 S | 173 49.4 98 67 6.0 - 1,024.7 2310 - 1520 - 50.8 58.6 44.2 4.7 0539 -2.4 1051 3.8 - 0.1 511 12.2 0.0 0.17 0.28 1912 0.01 1939 0.04 1920 0.11 1928 12.4
2/13/24 62.0 1311 41.8 0031 0.00 2.87 11.69 0.066 0.46 269 12.7 1448 NNE | 14 45.2 97 59 6.0 - 1,023.1 0034 - 1314 - - 59.0 41.3 - 1810 - 1307 3.3 - 9.3 511 14.7 0.0 - - - - - - - - - 12.4
2/12/24 61.2 1344 40.9 0054 0.00 2.87 11.69 0.065 0.45 284 10.1 1517 NNE | 24 44.6 98 46 39.0 - 1,027.6 0039 - 1627 - - 59.2 41.0 5.9 1922 - 1403 2.6 - 6.4 502 15.6 0.0 - - - - - - - - - 12.4
2/11/24 61.9 1449 37.3 0657 0.00 2.87 11.69 0.076 0.43 331 9.8 1522 NNW | 346 42.6 98 38 7.0 - 1,029.1 0803 - 1352 - - 59.9 36.8 3.9 1817 - 1505 2.9 - 11.2 495 16.8 0.0 - - - - - - - - - 12.4
2/10/24 63.4 1459 38.0 0701 0.00 2.87 11.69 0.089 0.40 360 14.4 1021 NNW | 329 39.4 98 34 6.8 - 1,027.0 2350 - 1443 - - 61.2 38.0 4.5 1845 - 1130 3.6 - 11.5 484 16.0 0.0 - - - - - - - - - 12.4
2/9/24 57.6 1541 36.3 0534 0.00 2.87 11.69 0.071 0.35 329 13.2 1631 WSW | 257 41.2 98 58 6.8 - 1,026.3 0904 - 1624 - - 55.8 35.9 3.5 1922 - 1149 1.8 - 12.3 472 18.7 0.0 - - - - - - - - - 12.4
2/8/24 57.7 1505 36.9 0705 0.00 2.87 11.69 0.062 0.33 278 16.6 1508 W | 275 41.3 98 59 8.3 - 1,023.9 2359 - 0018 - - 56.0 36.3 6.2 0203 - 1536 1.7 - 11.3 460 18.1 0.0 - - - - - - - - - 12.5
2/7/24 53.8 1521 46.9 0317 0.41 2.87 11.69 0.028 0.32 120 32.8 1527 WNW | 300 43.7 95 63 12.0 - 1,016.7 0000 - 1424 - 47.8 52.1 44.2 4.7 0259 -4.4 1408 0.6 - 0.0 449 14.8 0.0 0.41 2.77 1128 0.03 1129 0.09 1142 0.17 1227 12.6
2/6/24 58.8 1351 41.8 0557 0.00 2.46 11.28 0.060 0.32 252 15.6 1627 NW | 322 43.9 98 52 10.5 - 1,012.6 2359 - 1420 - 47.5 57.0 41.4 5.9 2226 -4.5 1333 2.1 - 8.3 449 15.8 0.0 - - - - - - - - - 12.5
2/5/24 62.0 1407 46.3 2317 0.24 2.46 11.28 0.048 0.32 177 27.2 0034 SSW | 207 48.5 98 58 15.0 - 1,013.1 1003 - 0001 - 51.2 60.1 45.4 3.8 2012 -2.3 1455 3.8 - 0.0 441 11.6 0.0 3.60 0.68 0332 0.01 0438 0.07 0343 0.15 0341 12.5
2/4/24 63.3 1449 48.8 0018 1.24 2.22 11.04 0.042 0.35 115 51.3 1714 S | 175 51.3 98 68 11.8 - 1,011.6 0001 - 1503 - 52.6 61.7 46.8 2.9 1447 -4.2 1523 5.1 - 0.0 441 9.9 0.0 3.36 2.25 1712 0.02 1713 0.15 1033 0.31 1102 12.5
2/3/24 58.4 1410 44.9 0730 0.48 0.98 9.80 0.037 0.37 136 16.6 2311 ESE | 117 46.3 98 56 4.3 - 1,021.3 0018 - 2359 - 48.6 56.1 43.9 2.2 0309 -2.3 1137 1.8 - 0.0 441 14.7 0.0 2.12 0.43 0302 0.01 2352 0.05 0311 0.10 2326 12.5
2/2/24 58.7 1310 43.9 2055 0.34 0.50 9.32 0.055 0.38 246 20.2 1058 NW | 311 47.0 98 55 5.5 - 1,021.3 2333 - 0002 - 49.2 56.9 44.1 5.3 1959 -3.5 1342 1.8 - 1.4 441 14.2 0.0 1.64 0.58 0038 0.01 2327 0.07 0047 0.11 0129 12.5
2/1/24 61.7 1211 48.6 2345 0.16 0.16 8.98 0.046 0.36 195 15.1 0409 SE | 136 50.4 98 62 8.0 - 1,012.7 2354 - 0025 - 51.7 59.8 48.1 4.3 0650 -3.0 1305 3.4 - 0.0 439 11.6 0.0 1.30 0.54 0721 0.01 2338 0.05 0733 0.16 0001 12.4
1/31/24 63.2 1224 53.5 2356 1.14 5.10 8.82 0.031 0.38 42 30.5 1028 S | 187 50.9 98 53 5.8 - 1,016.0 0110 - 1939 - 55.9 61.6 51.7 4.6 0103 -0.9 2019 8.0 - 0.0 439 7.0 0.0 1.14 0.64 1951 0.01 2358 0.07 2001 0.19 2019 12.5
1/30/24 70.9 1342 49.7 0716 0.00 3.96 7.68 0.066 0.41 240 17.2 1520 WSW | 243 49.4 95 36 11.3 - 1,023.0 0326 - 2359 - 56.6 68.0 49.4 6.7 0313 -3.8 1154 8.1 - 0.0 439 7.3 0.4 - - - - - - - - - 12.4
1/29/24 70.9 1436 45.0 0652 0.00 3.96 7.68 0.073 0.39 282 9.7 1431 ENE | 57 50.2 98 52 10.3 - 1,024.7 0001 - 1437 - - 68.7 44.7 7.0 1757 - 1523 7.3 - 0.0 439 9.4 0.9 - - - - - - - - - 12.4
1/28/24 69.7 1401 48.9 0715 0.00 3.96 7.68 0.060 0.36 230 10.3 1139 E | 92 52.0 98 52 7.5 - 1,027.4 0004 - 1547 - - 67.1 48.8 3.9 1925 - 1532 8.2 - 0.0 439 7.4 0.6 - - - - - - - - - 12.4
1/27/24 66.0 1513 47.3 0725 0.00 3.96 7.68 0.051 0.36 208 11.0 0945 NE | 54 50.7 98 61 9.3 - 1,031.0 0007 - 1439 - 54.5 63.9 46.6 3.9 0559 -4.3 1326 6.1 - 0.0 439 9.3 0.0 - - - - - - - - - 12.4
1/26/24 62.7 1231 46.9 0056 0.00 3.96 7.68 0.038 0.33 140 8.5 1254 E | 82 48.3 96 58 12.0 - 1,031.1 2352 - 0354 - 52.5 61.1 46.2 3.2 1737 -3.7 1230 4.5 - 0.0 439 11.1 0.0 - - - - - - - - - 12.4
1/25/24 62.7 1448 43.8 0732 0.00 3.96 7.68 0.067 0.31 291 14.2 1430 N | 355 48.5 98 63 23.3 - 1,028.8 2359 - 0017 - 51.7 60.9 43.6 3.7 0449 -4.5 1305 4.0 - 1.6 439 12.1 0.0 - - - - - - - - - 12.4
1/24/24 66.3 1414 51.8 2341 0.51 3.96 7.68 0.054 0.28 220 17.9 0817 SE | 134 53.7 98 67 23.0 - 1,024.6 2325 - 1443 - 55.8 64.2 50.8 3.7 2332 -3.4 1521 7.3 - 0.0 438 7.7 0.0 2.34 1.71 0737 0.03 0737 0.14 0749 0.37 0752 12.4
1/23/24 63.6 1358 50.9 2003 0.01 3.45 7.17 0.052 0.28 216 13.5 1551 WNW | 300 52.4 98 69 13.3 - 1,023.8 2249 - 0126 - 54.2 61.3 50.1 2.5 1930 -5.3 1314 5.4 - 0.0 438 9.6 0.0 1.83 0.01 0436 0.01 0337 0.01 0351 0.01 0436 12.4
1/22/24 63.7 1303 51.1 1951 1.50 3.44 7.16 0.042 0.26 177 17.6 0102 SE | 124 55.1 98 74 5.8 - 1,017.2 2345 - 0119 - 55.3 61.9 50.6 2.8 1838 -3.7 1154 7.1 - 0.0 438 7.9 0.0 1.82 3.27 0432 0.03 1027 0.20 0502 0.49 0437 12.4
1/21/24 65.2 1152 53.6 0740 0.32 1.94 5.66 0.053 0.25 164 20.2 2200 SSE | 148 53.3 96 67 3.8 - 1,013.7 0954 - 2315 - 56.9 62.8 52.6 1.5 0716 -2.4 1117 8.6 - 0.0 438 6.4 0.0 0.32 0.72 2058 0.01 2358 0.05 2346 0.13 0000 12.4
1/20/24 60.2 1216 51.6 0530 0.19 1.62 5.34 0.023 0.24 63 17.9 1503 SSW | 201 53.1 98 75 11.0 - 1,013.6 0959 - 1513 - 54.4 59.3 50.8 2.9 0417 -2.1 1212 6.4 - 0.0 438 8.6 0.0 0.24 0.18 1337 0.01 1614 0.04 0924 0.08 0953 12.5
1/19/24 59.4 2157 45.3 0603 0.05 1.43 5.15 0.017 0.25 54 20.8 1635 ESE | 112 50.3 98 74 25.3 - 1,020.8 0001 - 2357 - 51.3 58.8 44.9 3.6 2109 -0.9 1059 3.7 - 0.0 438 12.2 0.0 - 0.18 1551 0.01 2236 0.02 1503 0.02 1754 12.5
1/18/24 62.0 1500 41.7 0646 0.00 1.38 5.10 0.039 0.27 177 9.0 1222 E | 80 46.7 98 64 7.3 - 1,024.4 0003 - 1321 - 49.2 59.9 41.2 3.4 0613 -3.4 1420 3.0 - 8.4 438 14.6 0.0 - - - - - - - - - 12.4
1/17/24 61.1 1315 44.5 2348 0.00 1.38 5.10 0.050 0.29 220 11.7 0004 WSW | 249 50.3 98 61 8.0 - 1,024.5 2338 - 0045 - 52.0 59.2 44.1 4.3 0143 -4.2 1251 4.1 - 0.3 429 11.6 0.0 - 0.01 0048 - - 0.01 0003 0.01 0048 12.4
1/16/24 59.8 1407 42.0 0037 0.26 1.38 5.10 0.031 0.27 132 13.0 2335 SSW | 202 49.5 98 74 41.8 - 1,024.5 0001 - 2340 - 50.8 57.5 41.5 3.4 0029 -3.5 1151 3.8 - 3.1 429 13.0 0.0 0.26 0.34 1914 0.01 2349 0.04 2031 0.09 2116 12.5
1/15/24 59.6 1456 43.0 2353 0.00 1.12 4.84 0.037 0.28 167 8.6 1735 SSW | 198 47.6 98 68 16.3 - 1,025.7 0950 - 1647 - 49.6 57.9 42.6 3.3 1953 -4.4 1328 2.2 - 2.1 426 14.2 0.0 - - - - - - - - - 12.5
1/14/24 60.8 1334 44.8 2241 0.03 1.12 4.84 0.049 0.29 208 10.1 1339 NE | 37 49.8 98 65 9.3 - 1,025.3 2311 - 0030 - 52.2 58.6 44.2 4.7 1754 -3.2 1203 4.4 - 0.1 424 11.3 0.0 0.23 0.02 0615 0.01 0516 0.01 0530 0.02 0536 12.4
1/13/24 59.7 1358 41.1 0311 0.20 1.09 4.81 0.031 0.30 126 22.2 1601 SSW | 210 48.2 97 74 6.0 - 1,027.6 0002 - 2323 - 49.6 57.5 40.8 2.8 0009 -1.8 1356 3.6 - 7.3 424 14.0 0.0 0.20 0.14 2148 0.01 2300 0.03 2149 0.09 2124 12.5
1/12/24 56.2 1502 35.9 0408 0.00 0.89 4.61 0.036 0.30 167 9.8 1328 NE | 39 40.4 95 61 7.0 - 1,030.8 0940 - 1421 - 44.8 54.3 35.4 3.7 2323 -3.7 1310 1.3 - 9.4 416 19.0 0.0 - - - - - - - - - 12.5
1/11/24 55.5 1425 34.5 0723 0.00 0.89 4.61 0.058 0.32 266 16.8 0202 WNW | 293 35.0 94 33 6.8 - 1,029.1 2224 - 0001 - 44.0 53.6 34.7 6.3 0321 -4.5 1242 0.9 - 12.3 407 19.7 0.0 - - - - - - - - - 12.5
1/10/24 56.2 1508 37.0 0718 0.18 0.89 4.61 0.029 0.32 111 28.8 1950 WNW | 300 44.4 97 66 14.8 - 1,027.6 0001 - 1903 - 46.6 54.4 36.7 5.8 0600 -3.4 1258 1.7 - 7.2 394 16.6 0.0 0.18 0.58 1950 0.01 2032 0.03 2002 0.05 2047 12.5
1/9/24 60.8 1207 43.3 2300 0.00 0.71 4.43 0.039 0.33 139 18.7 1302 NW | 316 45.2 98 58 14.8 - 1,033.3 0047 - 1748 - 48.8 59.0 43.2 5.6 2259 -3.0 1402 2.3 - 3.2 387 14.7 0.0 - - - - - - - - - 12.5
1/8/24 58.4 1416 33.9 0641 0.00 0.71 4.43 0.052 0.34 244 9.3 0704 SSW | 199 37.3 96 41 6.5 - 1,033.1 2238 - 0004 - 44.0 56.3 33.8 4.4 1802 -4.9 1347 1.8 - 13.0 384 19.9 0.0 - - - - - - - - - 12.5
1/7/24 54.7 1539 33.2 0651 0.00 0.71 4.43 0.057 0.34 260 13.0 1423 NNE | 20 35.6 96 40 8.5 - 1,027.4 2356 - 0007 - 42.0 53.2 32.7 5.0 0058 -4.5 1340 0.7 - 14.6 371 21.9 0.0 - - - - - - - - - 12.5
1/6/24 58.5 1138 36.5 0415 0.09 0.71 4.43 0.035 0.31 105 26.3 1255 W | 264 41.1 95 58 10.8 - 1,027.9 0021 - 1448 - 45.2 56.8 36.6 3.9 0253 -2.0 1359 1.6 - 9.5 356 17.9 0.0 - 0.24 1502 0.01 1520 0.03 1511 0.06 1520 12.5
1/5/24 62.3 1440 42.0 2233 0.01 0.62 4.34 0.053 0.31 238 12.0 1425 WNW | 297 46.9 98 54 14.8 - 1,031.7 0905 - 2359 - 50.6 60.6 42.2 4.6 0741 -4.4 1328 3.2 - 2.8 347 13.2 0.0 - 0.01 0531 0.01 0432 0.01 0446 0.01 0531 12.4
1/4/24 60.2 1510 40.3 0341 0.00 0.61 4.33 0.054 0.29 247 10.5 1241 NNE | 32 44.2 98 55 9.5 - 1,032.0 0940 - 1443 - 48.0 58.5 39.9 6.5 0348 -4.0 1337 2.5 - 6.7 344 15.8 0.0 - - - - - - - - - 12.5
1/3/24 58.8 1206 44.9 0735 0.25 0.61 4.33 0.044 0.27 173 24.0 1342 WNW | 302 47.1 98 64 11.8 - 1,028.9 2341 - 0104 - 49.4 57.2 44.7 4.4 2253 -2.1 1403 2.3 - 0.2 337 13.8 0.0 0.61 1.12 0025 0.02 0024 0.09 0028 0.09 0309 12.5
1/2/24 65.2 1416 41.4 0236 0.36 0.36 4.08 0.045 0.26 167 24.8 1431 SSW | 192 47.4 98 49 15.3 - 1,027.3 0953 - 1710 - 50.1 63.3 41.2 4.5 0619 -2.7 1337 3.9 - 6.2 337 13.3 0.0 0.36 1.12 1732 0.02 1733 0.14 1738 0.20 1822 12.4
1/1/24 61.6 1451 43.0 0507 0.00 0.00 3.72 0.052 0.25 244 9.5 0948 N | 8 47.3 98 61 33.0 - 1,027.2 1006 - 0031 - 49.4 60.0 43.3 4.3 0442 -4.0 1317 2.8 - 3.0 331 14.4 0.0 - - - - - - - - - 12.4
12/31/23 58.4 1337 45.5 0153 0.00 3.04 3.72 0.024 0.24 101 7.1 0047 SSW | 203 49.1 98 78 8.3 - 1,024.3 0953 - 1424 - 49.6 56.5 44.9 2.6 0028 -2.3 1139 2.3 - 0.0 328 13.9 0.0 - - - - - - - - - 12.5
12/30/23 62.4 1408 46.9 2045 0.38 3.04 3.72 0.041 0.25 183 11.2 1534 W | 281 52.0 98 70 6.0 - 1,024.8 2100 - 0053 - 52.4 60.8 46.4 3.5 1812 -3.2 1141 4.2 - 0.0 328 11.1 0.0 1.05 2.25 1052 0.03 1053 0.19 1106 0.23 1151 12.5
12/29/23 66.7 1355 54.9 2345 0.67 2.66 3.34 0.029 0.27 72 25.6 1405 SSE | 167 56.3 98 64 4.3 - 1,020.5 0001 - 1424 - 58.2 64.7 53.0 4.5 0216 -1.8 0835 10.1 - 0.0 328 5.0 0.0 0.67 0.31 2000 0.01 2323 0.06 2003 0.19 2003 12.5
12/28/23 68.6 1455 49.1 0320 0.01 1.99 2.67 0.034 0.29 132 11.5 1109 SE | 137 55.9 98 70 6.8 - 1,025.9 0954 - 2359 - 57.1 67.2 48.9 4.5 0122 -2.2 1439 8.7 - 0.0 328 6.6 0.3 0.14 0.01 0833 0.01 0734 0.01 0748 0.01 0833 12.4
12/27/23 62.7 1242 46.5 0039 0.13 1.98 2.66 0.034 0.28 65 29.5 0846 S | 187 52.1 98 68 14.8 - 1,024.6 2346 - 1417 - 55.2 60.6 47.0 8.4 0047 -1.2 1629 7.2 - 0.0 328 7.9 0.0 0.13 0.23 1702 0.01 2146 0.04 1705 0.09 1710 12.5
12/26/23 59.2 1415 41.1 0359 0.00 1.85 2.53 0.033 0.27 143 10.5 2050 ESE | 123 45.7 98 64 23.0 - 1,027.7 0008 - 2332 - 48.2 56.9 41.5 5.5 2000 -3.4 1228 2.2 - 7.1 328 15.4 0.0 - - - - - - - - - 12.5
12/25/23 60.5 1336 38.0 0653 0.00 1.85 2.53 0.044 0.28 206 8.5 0316 SSW | 205 43.5 98 59 15.0 - 1,029.1 0941 - 1426 - 46.7 57.8 37.3 3.6 1753 -4.5 1322 2.1 - 9.0 321 17.2 0.0 - - - - - - - - - 12.5
12/24/23 57.0 1141 36.5 0700 0.00 1.85 2.53 0.037 0.25 184 9.7 0449 SSW | 199 41.4 98 65 10.8 - 1,029.0 0828 - 0004 - 44.2 54.9 36.3 4.0 0316 -3.2 1223 1.4 - 13.2 312 19.5 0.0 - - - - - - - - - 12.5
12/23/23 62.6 1318 39.8 0703 0.00 1.85 2.53 0.057 0.23 248 12.3 1047 E | 94 39.3 98 34 7.5 - 1,024.8 2240 - 0147 - 47.1 60.6 40.0 7.0 0004 -4.5 1322 2.9 - 13.4 299 16.5 0.0 - - - - - - - - - 12.5
12/22/23 66.1 1216 43.3 2350 0.00 1.85 2.53 0.053 0.23 233 12.3 1237 N | 353 50.9 98 65 11.0 - 1,021.0 2310 - 1359 - 52.4 64.2 44.3 5.3 2013 -3.8 1325 4.7 - 0.9 285 11.1 0.0 - - - - - - - - - 12.4
12/21/23 61.0 1324 45.5 0717 0.00 1.85 2.53 0.027 0.22 102 9.0 0314 SSW | 201 50.5 98 73 6.5 - 1,020.6 1034 - 0049 - 51.4 59.3 45.1 3.5 1718 -0.8 1200 3.7 - 0.0 284 11.8 0.0 - - - - - - - - - 12.5
12/20/23 61.2 1425 49.3 2353 0.71 1.85 2.53 0.021 0.23 83 30.8 0524 SSW | 208 53.4 98 77 5.3 - 1,016.9 2328 - 0407 - 54.2 59.2 48.6 2.6 0802 -3.2 1253 6.0 - 0.0 284 9.0 0.0 1.64 1.80 0600 0.02 0610 0.13 0612 0.25 0644 12.5
12/19/23 66.1 1416 58.1 2117 0.25 1.14 1.82 0.043 0.26 162 19.5 1400 S | 180 57.3 98 68 3.5 - 1,012.6 0858 - 2355 - 59.4 64.1 56.4 2.2 2009 -1.6 1307 11.1 - 0.0 284 3.9 0.0 0.93 1.16 0336 0.02 0336 0.09 0343 0.18 0426 12.4
12/18/23 64.1 1338 50.8 0500 0.63 0.89 1.57 0.016 0.26 60 15.8 1325 SE | 139 56.2 98 79 18.3 - 1,017.8 0002 - 1515 - 55.7 61.7 48.7 2.8 1901 -0.8 1210 7.6 - 0.0 284 7.4 0.0 0.68 0.66 1431 0.01 1734 0.09 1439 0.15 1523 12.5
12/17/23 57.8 1455 45.1 0248 0.05 0.26 0.94 0.011 - 55 9.8 0020 ENE | 71 47.6 96 72 32.8 - 1,023.5 0008 - 2351 - 50.1 55.5 44.9 4.2 0111 -4.5 1437 2.7 - 0.0 284 13.4 0.0 - 0.22 1320 0.01 1321 0.04 1321 0.04 1406 12.5
12/16/23 68.1 1354 37.3 0732 0.00 0.21 0.89 0.054 - 238 9.1 1848 SSW | 206 39.8 93 33 22.3 - 1,025.0 0945 - 1548 - 48.8 66.8 37.9 6.2 1745 -4.4 1248 4.3 - 9.3 284 15.2 0.3 - - - - - - - - - 12.4
12/15/23 64.9 1459 38.9 0627 0.00 0.21 0.89 0.044 - 210 9.3 2232 SSW | 203 40.9 94 39 31.0 - 1,026.8 0033 - 1500 - 47.7 63.5 38.9 6.7 1727 -4.0 1239 3.3 - 11.8 275 16.1 0.0 - - - - - - - - - 12.4
12/14/23 62.5 1505 36.0 0725 0.00 0.21 0.89 0.041 - 189 8.5 2333 SSW | 194 41.2 97 48 20.8 - 1,026.9 2320 - 0024 - 46.2 60.9 35.9 5.1 1725 -4.2 1302 2.7 - 11.9 263 17.6 0.0 - - - - - - - - - 12.4
12/13/23 64.6 1334 35.0 0723 0.00 0.21 0.89 0.050 - 227 8.9 0811 SSW | 195 42.1 98 42 16.3 - 1,024.1 2350 - 1419 - 47.3 62.4 34.4 4.7 1719 -4.9 1024 3.1 - 12.5 251 16.6 0.0 - - - - - - - - - 12.4
12/12/23 64.1 1452 40.3 2356 0.01 0.21 0.89 0.045 - 202 8.2 2001 SSW | 208 46.7 98 55 21.8 - 1,021.4 2358 - 1441 - 49.5 62.6 40.1 5.2 1708 -6.1 1204 2.8 - 4.8 239 14.4 0.0 - 0.01 0819 0.01 0720 0.01 0734 0.01 0819 12.4
12/11/23 64.2 1508 35.2 0502 0.00 0.20 0.88 - - 236 9.2 0334 SSW | 193 41.1 96 33 12.0 - 1,025.4 0244 - 1632 - 47.8 62.7 35.9 6.0 1724 -5.2 1241 3.0 - 12.0 234 18.0 0.0 - - - - - - - - - 12.3
12/10/23 60.1 1423 33.8 0607 0.00 0.20 0.88 0.046 0.32 220 11.7 1400 NNW | 338 37.9 93 45 13.0 - 1,032.3 0011 - 2359 - 44.8 59.2 34.9 4.0 1721 -4.4 1313 2.0 - 14.0 222 20.0 0.0 - - - - - - - - - 12.5
12/9/23 60.2 1409 35.8 0342 0.00 0.20 0.88 0.054 0.31 237 9.8 0139 SSW | 200 33.5 88 30 4.8 - 1,032.5 0951 - 0011 - 45.3 59.6 36.7 6.1 1701 -4.3 1335 2.3 - 14.1 208 19.4 0.0 - - - - - - - - - 12.5
12/8/23 57.2 1340 36.9 0615 0.00 0.20 0.88 0.046 0.29 251 14.6 1403 N | 355 39.4 98 55 7.0 - 1,030.4 1009 - 1459 - 44.5 55.9 37.7 5.0 2004 -4.2 1300 1.4 - 14.4 194 20.0 0.0 - - - - - - - - - 12.5
12/7/23 60.6 1246 40.7 2317 0.04 0.20 0.88 0.040 0.30 158 18.9 1245 WSW | 254 46.7 98 59 7.8 - 1,028.9 2331 - 1329 - 49.5 59.6 41.7 5.1 2247 -2.6 1523 2.5 - 4.3 180 15.0 0.0 0.14 0.02 1524 0.01 1620 0.01 1634 0.02 1624 12.5
12/6/23 65.5 1146 42.3 0419 0.10 0.16 0.84 0.036 0.31 133 22.1 1704 WNW | 283 49.2 98 62 32.5 - 1,026.4 2358 - 1411 - 51.9 64.5 42.7 6.5 0709 -4.2 1444 4.8 - 5.6 175 12.3 0.0 0.10 0.07 1411 0.01 1846 0.02 1426 0.06 1443 12.4
12/5/23 66.3 1329 41.5 0622 0.00 0.06 0.74 0.049 0.32 226 8.1 1439 N | 4 48.5 98 60 22.0 - 1,027.8 0020 - 1552 - 51.5 65.0 42.4 4.5 1743 -7.2 1151 3.8 - 5.1 170 13.3 0.0 - - - - - - - - - 12.4
12/4/23 65.9 1346 42.2 0722 0.00 0.06 0.74 0.048 0.33 214 7.3 0138 SSW | 206 48.8 98 63 29.5 - 1,029.7 0908 - 1422 - 51.6 65.2 43.0 4.4 1736 -6.9 1204 3.6 - 2.7 164 13.2 0.0 - - - - - - - - - 12.4
12/3/23 63.3 1306 45.5 0708 0.00 0.06 0.74 0.036 0.34 137 7.9 0751 SSW | 200 50.9 98 67 7.5 - 1,031.1 0945 - 1521 - 54.1 61.8 46.3 4.6 0704 -2.3 1259 5.2 - 0.0 162 10.3 0.0 - - - - - - - - - 12.4
12/2/23 62.9 1245 51.9 0008 0.06 0.06 0.74 0.032 0.35 130 10.6 0948 W | 259 52.4 96 71 8.0 - 1,029.4 2359 - 0131 - 55.4 61.7 51.3 3.3 1932 -2.7 1047 6.0 - 0.0 162 9.0 0.0 - 0.07 1158 0.01 1354 0.02 1202 0.03 1239 12.4
12/1/23 60.9 1400 39.6 0659 0.00 0.00 0.68 0.056 0.38 233 14.5 1334 NW | 311 43.6 94 51 9.8 - 1,027.2 2359 - 0012 - 51.3 60.2 41.4 7.6 0447 -4.2 1326 3.4 - 3.7 162 13.3 0.0 - - - - - - - - - 12.4
11/30/23 61.6 1228 41.4 0736 0.00 0.59 0.68 0.051 0.40 203 23.3 1119 WNW | 302 - 98 58 8.8 - 1,023.1 2343 - 1413 - 53.6 60.8 42.4 5.9 0744 -3.5 1306 3.8 - 8.1 158 13.6 0.0 - - - - - - - - - 12.4
11/29/23 61.3 1525 43.5 2341 0.07 0.59 0.68 0.048 0.42 220 8.2 1344 NNW | 347 47.9 97 59 14.3 - 1,021.3 0003 - 1536 - 52.0 60.7 44.5 2.9 2215 -4.6 1304 3.0 - 2.3 150 12.9 0.0 - 0.07 0010 0.01 0614 0.02 0025 0.05 0042 12.5
11/28/23 66.2 1330 33.4 0709 0.02 0.52 0.61 0.060 0.43 260 10.2 1343 NNW | 341 37.7 91 37 13.3 - 1,025.6 0857 - 1405 - 47.9 64.4 34.8 7.6 2008 -4.8 1221 3.5 - 8.8 148 17.0 0.0 - 0.06 0000 0.01 2353 0.02 2357 0.02 0000 12.5
11/27/23 64.1 1456 32.2 0554 0.00 0.50 0.59 0.058 0.42 266 9.3 0642 SSW | 195 34.4 91 29 8.0 - 1,025.5 2307 - 1414 - 45.7 63.9 33.5 5.8 1643 -5.5 1231 3.1 - 13.1 139 19.2 0.0 - - - - - - - - - 12.5
11/26/23 62.1 1432 35.0 0517 0.00 0.50 0.59 0.049 0.43 224 9.5 0733 SSW | 201 34.7 89 34 9.3 - 1,025.9 0840 - 1452 - 45.6 60.7 36.2 5.5 1909 -4.6 1141 2.4 - 13.7 126 19.2 0.0 - - - - - - - - - 12.5
11/25/23 62.2 1402 33.7 0521 0.00 0.50 0.59 0.061 0.46 272 10.8 0114 SSW | 204 31.4 82 30 4.0 - 1,025.1 0949 - 1358 - 45.5 61.4 34.4 6.5 1652 -5.8 1308 2.6 - 13.9 112 19.5 0.0 - - - - - - - - - 12.5
11/24/23 60.8 1243 35.6 0714 0.00 0.50 0.59 0.069 0.44 284 11.4 1247 N | 8 31.5 87 25 9.5 - 1,022.1 2358 - 0010 - 46.1 59.8 36.1 7.4 1715 -5.2 1243 2.6 - 14.6 98 18.8 0.0 - - - - - - - - - 12.5
11/23/23 69.4 1312 43.0 0708 0.00 0.50 0.59 0.072 0.41 275 11.6 1333 NNW | 344 42.4 88 36 7.5 - 1,020.0 0001 - 1434 - 53.5 68.6 43.3 7.0 1724 -5.6 1227 5.6 - 4.8 83 11.9 0.6 - - - - - - - - - 12.4
11/22/23 67.3 1430 39.1 0725 0.00 0.50 0.59 0.057 0.39 217 9.0 2022 SSW | 198 41.4 92 34 7.8 - 1,030.3 0001 - 2355 - 52.2 66.6 40.4 3.7 0237 -4.3 1159 5.3 - 8.4 79 12.7 0.1 - - - - - - - - - 12.4
11/21/23 64.4 1538 38.2 0439 0.00 0.50 0.59 0.049 0.38 209 9.2 0536 SSW | 200 40.2 91 40 5.0 - 1,032.6 0918 - 0004 - 49.4 63.6 38.6 4.7 1657 -4.3 1156 3.7 - 8.5 70 15.4 0.0 - - - - - - - - - 12.5
11/20/23 66.4 1341 38.9 0640 0.00 0.50 0.59 0.077 0.41 287 11.6 0913 ESE | 111 36.2 91 25 4.5 - 1,029.2 0002 - 1345 - 50.7 65.5 40.6 10.1 0117 -4.8 1234 4.6 - 9.1 62 14.0 0.1 - - - - - - - - - 12.4
11/19/23 61.6 1443 43.3 2238 0.00 0.50 0.59 0.070 0.40 283 17.0 1549 NNW | 331 43.8 94 41 15.8 - 1,032.7 1021 - 0001 - 51.8 60.9 44.4 5.9 2233 -4.7 1308 3.4 - 2.5 53 12.9 0.0 - - - - - - - - - 12.5
11/18/23 66.0 1116 53.3 2356 0.30 0.50 0.59 0.049 0.41 194 23.0 2118 NW | 304 56.7 97 75 18.3 - 1,027.5 2359 - 0321 - 59.0 65.0 53.2 2.7 2300 -3.0 1323 9.7 - 0.0 50 5.3 0.0 0.37 0.18 0324 0.01 2149 0.04 0331 0.11 0419 12.5
11/17/23 68.0 1319 48.4 0642 0.07 0.20 0.29 0.039 0.44 130 19.6 1401 SSE | 156 54.5 98 63 12.3 - 1,018.5 0001 - 1536 - 57.9 67.7 49.3 3.1 0220 -3.1 1004 8.5 - 0.0 50 6.9 0.4 - 0.10 1757 0.01 2244 0.02 1800 0.04 1809 12.4
11/16/23 67.9 1424 51.7 0157 0.03 0.13 0.22 0.053 0.47 211 9.8 1438 NNW | 344 54.0 98 66 10.3 - 1,019.1 0849 - 0001 - 58.2 66.6 51.7 2.5 2258 -4.9 1335 8.4 - 0.0 50 6.8 0.2 - 0.07 0557 0.01 0743 0.02 0503 0.02 0548 12.4
11/15/23 72.0 1406 49.6 0040 0.01 0.10 0.19 0.047 0.49 139 16.6 1746 ESE | 105 48.3 94 24 9.0 - 1,016.4 0001 - 1413 - 57.3 70.8 49.9 4.5 2104 -4.6 1151 7.6 - 0.0 50 7.9 0.6 - 0.01 1846 0.01 1747 0.01 1801 0.01 1846 12.4
11/14/23 74.2 1330 49.6 2346 0.00 0.09 0.18 0.073 0.53 226 24.9 1457 S | 186 49.1 91 43 4.8 - 1,018.9 1008 - 1731 - 59.6 72.5 50.0 6.4 1830 -3.8 1237 10.1 - 0.0 50 6.4 1.5 - - - - - - - - - 12.4
11/13/23 67.7 1308 44.6 0621 0.00 0.09 0.18 0.070 0.54 288 11.1 1702 WNW | 292 49.0 97 56 9.5 - 1,019.9 0020 - 1559 - 54.9 66.2 45.2 5.9 2111 -6.4 1206 5.7 - 0.4 50 10.3 0.2 - - - - - - - - - 12.4
11/12/23 71.2 1410 40.6 0629 0.00 0.09 0.18 0.076 0.54 294 15.8 1925 SW | 215 46.1 92 44 10.5 - 1,022.8 0003 - 1442 - 55.6 70.4 42.5 4.5 1850 -6.8 1153 7.9 - 7.4 50 10.4 0.9 - - - - - - - - - 12.4
11/11/23 72.1 1411 40.7 0618 0.00 0.09 0.18 0.078 0.54 304 9.0 0343 SSW | 200 41.8 87 33 10.8 - 1,027.0 0834 - 1542 - 54.3 70.9 41.4 5.8 1711 -6.4 1223 6.6 - 6.7 42 11.8 1.1 - - - - - - - - - 12.4
11/10/23 68.2 1506 40.2 0101 0.00 0.09 0.18 0.075 0.55 295 9.5 1449 N | 6 38.6 91 21 7.8 - 1,025.7 0042 - 1643 - 52.1 67.4 41.0 5.6 1751 -6.7 1229 5.2 - 8.0 36 13.4 0.4 - - - - - - - - - 12.4
11/9/23 68.0 1314 36.8 0629 0.00 0.09 0.18 0.074 0.56 273 12.5 1416 NNW | 329 38.6 90 28 7.3 - 1,028.5 0805 - 1624 - 50.4 66.8 38.1 5.5 2358 -5.7 1213 5.0 - 10.4 28 14.8 0.2 - - - - - - - - - 12.4
11/8/23 68.7 1457 41.6 0610 0.00 0.09 0.18 0.085 0.58 324 12.5 1146 WNW | 302 40.3 94 31 8.3 - 1,029.3 0841 - 1508 - 52.7 67.7 42.3 4.6 1807 -6.0 1300 5.7 - 7.9 17 12.6 0.4 - - - - - - - - - 12.4
11/7/23 65.5 1331 44.9 0553 0.00 0.09 0.18 0.081 0.59 299 20.7 1344 WNW | 285 46.6 98 43 8.3 - 1,026.8 2359 - 0003 - 53.8 64.4 45.8 5.1 0546 -5.1 1326 4.9 - 0.0 10 11.2 0.0 - - - - - - - - - 12.4
11/6/23 69.9 1328 50.9 2329 0.03 0.09 0.18 0.068 0.59 208 18.2 0259 WSW | 240 55.2 95 55 10.3 - 1,020.9 2356 - 0059 - 61.2 68.6 51.0 3.7 1841 -4.7 1240 11.7 - 0.0 10 3.9 0.6 - 0.16 0812 0.01 0813 0.03 0818 0.03 0903 12.4
11/5/23 75.1 1348 52.2 0037 0.06 0.06 0.15 0.081 0.62 262 20.5 1723 SW | 224 56.4 96 56 3.3 - 1,021.6 0740 - 1934 - 63.3 73.0 52.6 2.1 0048 -7.3 1208 13.3 - 0.0 10 4.0 2.3 - 0.17 2255 0.01 2331 0.03 2256 0.05 2336 12.3
11/4/23 76.6 1439 50.3 0725 0.00 0.00 0.09 0.082 0.65 301 12.9 1615 NE | 48 55.6 94 61 15.8 - 1,023.7 0833 - 1437 - 61.6 74.8 50.7 4.1 0130 -6.9 1330 11.4 - 0.0 10 5.7 2.1 - - - - - - - - - 12.4
11/3/23 78.6 1546 47.1 0451 0.00 0.00 0.09 0.096 0.66 321 10.5 1433 N | 4 46.4 84 30 14.5 - 1,024.0 0907 - 1543 - 61.8 77.5 47.9 6.0 1832 -6.0 1348 12.0 - 0.0 10 6.9 3.6 - - - - - - - - - 12.4
11/2/23 76.2 1637 42.8 0634 0.00 0.00 0.09 0.091 0.65 320 9.0 0435 SSW | 198 42.8 83 23 17.0 - 1,024.3 0039 - 1422 - 58.8 75.3 44.0 5.4 1901 -6.4 1257 10.0 - 2.8 10 8.8 2.5 - - - - - - - - - 12.4
11/1/23 78.0 1518 38.9 0746 0.00 0.00 0.09 0.091 0.66 333 10.3 0119 SSW | 201 39.8 86 18 18.0 - 1,024.3 0932 - 1527 - 55.6 75.6 39.7 5.6 1817 -6.1 1315 8.2 - 6.7 7 11.3 1.9 - - - - - - - - - 12.4
10/31/23 73.8 1623 37.7 0644 0.00 0.01 0.09 0.083 0.65 320 9.8 2323 SSW | 196 37.2 81 23 13.5 - 1,025.8 0917 - 1710 - 53.7 73.2 39.2 6.6 1813 -6.3 1511 7.0 2,686 7.8 - 12.8 1.3 - - - - - - - - - 12.5
10/30/23 73.8 1545 36.8 0747 0.00 0.01 0.09 0.100 0.65 363 10.0 1144 ENE | 69 33.3 79 16 11.5 - 1,027.2 0922 - 1609 - 53.3 73.6 38.1 7.3 1811 -6.4 1431 7.3 2,679 9.6 - 13.3 1.6 - - - - - - - - - 12.5
10/29/23 72.8 1505 36.1 0759 0.00 0.01 0.09 0.106 0.66 376 11.1 0423 SSW | 198 28.3 73 13 7.5 - 1,026.9 0932 - 1641 - 52.9 70.6 38.0 9.4 0334 -7.0 1254 6.6 2,672 8.7 - 13.3 1.2 - - - - - - - - - 12.5
10/28/23 67.3 1518 39.7 0718 0.00 0.01 0.09 0.097 0.60 366 14.9